Time;durP1;ratioP1;P1;durP2;ratioP2;P2;SDS_P1;SDS_P2;PMS_P1;PMS_P2;Temp;Humidity;BMP_temperature;BMP_pressure;BME280_temperature;BME280_humidity;BME280_pressure;Samples;Min_cycle;Max_cycle;Signal;HPM_P1;HPM_P2
2022/11/08 00:02:14;;;;;;;;;;;;;;;-144.99;100.00;52431.78;5023247;28;19950;-69
2022/11/08 00:04:40;;;;;;;;;;;;;;;-144.99;100.00;52391.03;5070346;28;19997;-69
2022/11/08 00:15:18;;;;;;;;;;;;;;;-144.99;100.00;52431.78;5069890;28;20293;-65
2022/11/08 00:17:46;;;;;;;;;;;;;;;-144.99;100.00;52409.38;5069812;28;19963;-64
2022/11/08 00:20:12;;;;;;;;;;;;;;;-144.99;100.00;52407.31;5069375;28;19932;-64
2022/11/08 00:22:39;;;;;;;;;;;;;;;-144.99;100.00;52407.31;5055648;28;19970;-65
2022/11/08 00:25:06;;;;;;;;;;;;;;;-144.99;100.00;52393.06;5069126;28;20030;-70
2022/11/08 00:27:33;;;;;;;;;;;;;;;-144.99;100.00;52370.63;5064023;28;19984;-65
2022/11/08 00:29:59;;;;;;;;;;;;;;;-144.99;100.00;52429.75;5057812;28;19929;-66
2022/11/08 00:32:26;;;;;;;;;;;;;;;-144.99;100.00;52419.56;5069010;28;19993;-68
2022/11/08 00:34:54;;;;;;;;;;;;;;;-144.99;100.00;52415.47;5070394;28;20047;-67
2022/11/08 00:37:21;;;;;;;;;;;;;;;-144.99;100.00;52370.63;5070390;28;19956;-63
2022/11/08 00:39:48;;;;;;;;;;;;;;;-144.99;100.00;52366.56;5069461;28;20377;-63
2022/11/08 00:42:14;;;;;;;;;;;;;;;-144.99;100.00;52417.53;5069484;28;20033;-63
2022/11/08 00:44:40;;;;;;;;;;;;;;;-144.99;100.00;52415.47;5069324;28;19946;-64
2022/11/08 00:47:08;;;;;;;;;;;;;;;-144.99;100.00;52423.63;5066139;28;19977;-65
2022/11/08 00:49:35;;;;;;;;;;;;;;;-144.99;100.00;52439.94;5070593;28;19943;-69
2022/11/08 00:52:03;;;;;;;;;;;;;;;-144.99;100.00;52378.78;5071197;28;20056;-73
2022/11/08 00:54:29;;;;;;;;;;;;;;;-144.99;100.00;52399.19;5073782;28;20038;-75
2022/11/08 00:56:56;;;;;;;;;;;;;;;-144.99;100.00;52362.50;5059228;28;20068;-72
2022/11/08 00:59:22;;;;;;;;;;;;;;;-144.99;100.00;52407.31;5057914;28;20385;-72
2022/11/08 01:01:49;;;;;;;;;;;;;;;-144.99;100.00;52395.09;5066517;28;19991;-72
2022/11/08 01:04:17;;;;;;;;;;;;;;;-144.99;100.00;52427.72;5073543;28;20011;-73
2022/11/08 01:06:43;;;;;;;;;;;;;;;-144.99;100.00;52374.72;5073684;28;20041;-72
2022/11/08 01:09:11;;;;;;;;;;;;;;;-144.99;100.00;52429.75;5073330;28;20323;-72
2022/11/08 01:11:38;;;;;;;;;;;;;;;-144.99;100.00;52446.06;5072250;28;20012;-72
2022/11/08 01:14:05;;;;;;;;;;;;;;;-144.99;100.00;52452.16;5069492;28;19962;-76
2022/11/08 01:16:32;;;;;;;;;;;;;;;-144.99;100.00;52431.78;5070126;28;20377;-69
2022/11/08 01:19:01;;;;;;;;;;;;;;;-144.99;100.00;52423.63;5075552;28;20373;-70
2022/11/08 01:21:28;;;;;;;;;;;;;;;-144.99;100.00;52399.19;5071378;28;19965;-70
2022/11/08 01:23:55;;;;;;;;;;;;;;;-144.99;100.00;52435.88;5065718;28;20012;-69
2022/11/08 01:26:24;;;;;;;;;;;;;;;-144.99;100.00;52419.56;5058100;28;20326;-69
2022/11/08 01:28:50;;;;;;;;;;;;;;;-144.99;100.00;52431.78;5064888;28;20041;-70
2022/11/08 01:31:18;;;;;;;;;;;;;;;-144.99;100.00;52423.63;5061274;28;20219;-71
2022/11/08 01:33:44;;;;;;;;;;;;;;;-144.99;100.00;52431.78;5068526;28;20058;-71
2022/11/08 01:36:11;;;;;;;;;;;;;;;-144.99;100.00;52386.94;5069397;28;19955;-71
2022/11/08 01:38:38;;;;;;;;;;;;;;;-144.99;100.00;52435.88;5067316;28;20025;-70
2022/11/08 01:41:05;;;;;;;;;;;;;;;-144.99;100.00;52423.63;5068383;28;19963;-71
2022/11/08 01:43:36;;;;;;;;;;;;;;;-144.99;100.00;52386.94;5068574;28;19929;-70
2022/11/08 01:46:17;;;;;;;;;;;;;;;-144.99;100.00;52419.56;5065800;28;19943;-70
2022/11/08 01:48:46;;;;;;;;;;;;;;;-144.99;100.00;52413.44;5041992;28;20060;-65
2022/11/08 01:51:15;;;;;;;;;;;;;;;-144.99;100.00;52415.47;5066518;28;20477;-65
2022/11/08 01:53:42;;;;;;;;;;;;;;;-144.99;100.00;52399.19;5066305;28;19951;-65
2022/11/08 01:56:10;;;;;;;;;;;;;;;-144.99;100.00;52415.47;5057870;28;19939;-65
2022/11/08 01:58:39;;;;;;;;;;;;;;;-144.99;100.00;52429.75;5069024;28;20398;-65
2022/11/08 02:01:05;;;;;;;;;;;;;;;-144.99;100.00;52427.72;5062854;28;20009;-69
2022/11/08 02:03:33;;;;;;;;;;;;;;;-144.99;100.00;52421.59;5067524;28;19947;-68
2022/11/08 02:06:00;;;;;;;;;;;;;;;-144.99;100.00;52444.03;5067821;28;19948;-67
2022/11/08 02:08:29;;;;;;;;;;;;;;;-144.99;100.00;52448.09;5067085;28;19990;-67
2022/11/08 02:10:55;;;;;;;;;;;;;;;-144.99;100.00;52403.25;5067847;28;20066;-68
2022/11/08 02:13:23;;;;;;;;;;;;;;;-144.99;100.00;52417.53;5067160;28;20058;-69
2022/11/08 02:15:51;;;;;;;;;;;;;;;-144.99;100.00;52437.91;5068525;28;19963;-72
2022/11/08 02:18:19;;;;;;;;;;;;;;;-144.99;100.00;52425.66;5067832;28;20016;-70
2022/11/08 02:20:50;;;;;;;;;;;;;;;-144.99;100.00;52415.47;5068141;28;20053;-71
2022/11/08 02:23:21;;;;;;;;;;;;;;;-144.99;100.00;52382.88;5055466;28;20289;-72
2022/11/08 02:25:49;;;;;;;;;;;;;;;-144.99;100.00;52407.31;5061117;28;19936;-70
2022/11/08 02:28:16;;;;;;;;;;;;;;;-144.99;99.17;52407.31;5063490;28;20467;-72
2022/11/08 02:30:42;;;;;;;;;;;;;;;-144.99;100.00;52429.75;5065777;28;19974;-72
2022/11/08 02:33:15;;;;;;;;;;;;;;;-144.99;100.00;52403.25;5067776;28;19970;-72
2022/11/08 02:35:42;;;;;;;;;;;;;;;-144.99;100.00;52435.88;5055421;28;19988;-71
2022/11/08 02:38:10;;;;;;;;;;;;;;;-144.99;100.00;52399.19;5066274;28;20173;-71
2022/11/08 02:40:47;;;;;;;;;;;;;;;-144.99;100.00;52401.22;5070379;28;19963;-71
2022/11/08 02:43:15;;;;;;;;;;;;;;;-144.99;100.00;52399.19;5088473;28;19966;-68
2022/11/08 02:45:41;;;;;;;;;;;;;;;-144.99;100.00;52403.25;5072846;28;20008;-69
2022/11/08 02:48:08;;;;;;;;;;;;;;;-144.99;100.00;52439.94;5063863;28;20357;-68
2022/11/08 02:50:34;;;;;;;;;;;;;;;-144.99;100.00;52399.19;5067299;28;19970;-68
2022/11/08 02:53:01;;;;;;;;;;;;;;;-144.99;100.00;52415.47;5066696;28;19993;-69
2022/11/08 02:55:28;;;;;;;;;;;;;;;-144.99;100.00;52403.25;5063073;28;20409;-68
2022/11/08 02:57:54;;;;;;;;;;;;;;;-144.99;100.00;52413.44;5059014;28;19965;-67
2022/11/08 03:00:22;;;;;;;;;;;;;;;-144.99;100.00;52425.66;5066984;28;19970;-67
2022/11/08 03:02:51;;;;;;;;;;;;;;;-144.99;100.00;52419.56;5067081;28;20487;-67
2022/11/08 03:05:18;;;;;;;;;;;;;;;-144.99;100.00;52403.25;5066909;28;20460;-67
2022/11/08 03:07:44;;;;;;;;;;;;;;;-144.99;100.00;52431.78;5066398;28;20307;-66
2022/11/08 03:10:11;;;;;;;;;;;;;;;-144.99;100.00;52397.13;5067139;28;20050;-66
2022/11/08 03:12:37;;;;;;;;;;;;;;;-144.99;100.00;52419.56;5066643;28;20427;-66
2022/11/08 03:15:04;;;;;;;;;;;;;;;-144.99;100.00;52391.03;5067233;28;19978;-72
2022/11/08 03:17:33;;;;;;;;;;;;;;;-144.99;99.78;52419.56;5054089;28;20063;-68
2022/11/08 03:19:59;;;;;;;;;;;;;;;-144.99;100.00;52415.47;5070844;28;20289;-67
2022/11/08 03:22:26;;;;;;;;;;;;;;;-144.99;100.00;52427.72;5070075;28;19977;-66
2022/11/08 03:24:52;;;;;;;;;;;;;;;-144.99;100.00;52437.91;5076649;28;19975;-66
2022/11/08 03:27:19;;;;;;;;;;;;;;;-144.99;100.00;52415.47;5064072;28;19985;-67
2022/11/08 03:29:45;;;;;;;;;;;;;;;-144.99;100.00;52415.47;5059860;28;20409;-67
2022/11/08 03:32:12;;;;;;;;;;;;;;;-144.99;100.00;52435.88;5068769;28;20043;-67
2022/11/08 03:34:40;;;;;;;;;;;;;;;-144.99;100.00;52391.03;5071168;28;19996;-68
2022/11/08 03:37:07;;;;;;;;;;;;;;;-144.99;100.00;52439.94;5070506;28;20440;-66
2022/11/08 03:39:33;;;;;;;;;;;;;;;-144.99;100.00;52435.88;5069808;28;19944;-67
2022/11/08 03:42:02;;;;;;;;;;;;;;;-144.99;100.00;52423.63;5070374;28;20423;-67
2022/11/08 03:44:28;;;;;;;;;;;;;;;-144.99;100.00;52391.03;5070716;28;19947;-67
2022/11/08 03:46:54;;;;;;;;;;;;;;;-144.99;100.00;52448.09;5066343;28;20027;-67
2022/11/08 03:49:21;;;;;;;;;;;;;;;-144.99;100.00;52401.22;5070611;28;20464;-73
2022/11/08 03:51:49;;;;;;;;;;;;;;;-144.99;100.00;52358.41;5071402;28;20489;-71
2022/11/08 03:54:15;;;;;;;;;;;;;;;-144.99;100.00;52431.78;5076046;28;19963;-71
2022/11/08 03:56:42;;;;;;;;;;;;;;;-144.99;100.00;52460.31;5078957;28;20041;-70
2022/11/08 03:59:08;;;;;;;;;;;;;;;-144.99;100.00;52419.56;5078223;28;20040;-69
2022/11/08 04:01:35;;;;;;;;;;;;;;;-144.99;100.00;52391.03;5084607;28;19949;-69
2022/11/08 04:04:01;;;;;;;;;;;;;;;-144.99;100.00;52407.31;5085797;28;19946;-68
2022/11/08 04:06:28;;;;;;;;;;;;;;;-144.99;100.00;52452.16;5089475;28;19948;-72
2022/11/08 04:08:56;;;;;;;;;;;;;;;-144.99;100.00;52429.75;5088325;28;20033;-71
2022/11/08 04:16:51;;;;;;;;;;;;;;;-144.99;100.00;52421.59;5089690;28;20329;-75
2022/11/08 04:22:02;;;;;;;;;;;;;;;-144.99;100.00;52411.41;5087390;28;20460;-73
2022/11/08 04:24:30;;;;;;;;;;;;;;;-144.99;100.00;52407.31;5072989;28;20070;-72
2022/11/08 04:26:56;;;;;;;;;;;;;;;-144.99;100.00;52423.63;5075038;28;19943;-74
2022/11/08 04:29:23;;;;;;;;;;;;;;;-144.99;100.00;52395.09;5060283;28;20456;-74
2022/11/08 04:31:50;;;;;;;;;;;;;;;-144.99;100.00;52444.03;5070832;28;20252;-74
2022/11/08 04:34:16;;;;;;;;;;;;;;;-144.99;100.00;52419.56;5064077;28;19999;-76
2022/11/08 04:36:42;;;;;;;;;;;;;;;-144.99;100.00;52456.25;5064779;28;19939;-76
2022/11/08 04:39:09;;;;;;;;;;;;;;;-144.99;100.00;52444.03;5068124;28;20042;-75
2022/11/08 04:41:37;;;;;;;;;;;;;;;-144.99;100.00;52413.44;5061206;28;20009;-73
2022/11/08 04:44:03;;;;;;;;;;;;;;;-144.99;100.00;52423.63;5067853;28;19947;-73
2022/11/08 04:46:30;;;;;;;;;;;;;;;-144.99;100.00;52441.97;5064262;28;20023;-74
2022/11/08 04:48:57;;;;;;;;;;;;;;;-144.99;100.00;52464.41;5066796;28;19997;-74
2022/11/08 04:51:26;;;;;;;;;;;;;;;-144.99;100.00;52431.78;5090676;22;19981;-74
2022/11/08 04:53:52;;;;;;;;;;;;;;;-144.99;100.00;52448.09;5089565;28;19963;-76
2022/11/08 04:56:20;;;;;;;;;;;;;;;-144.99;100.00;52437.91;5082943;28;20019;-62
2022/11/08 04:58:48;;;;;;;;;;;;;;;-144.99;100.00;52417.53;5090730;28;19939;-61
2022/11/08 05:01:16;;;;;;;;;;;;;;;-144.99;100.00;52450.13;5075454;28;19972;-61
2022/11/08 05:03:42;;;;;;;;;;;;;;;-144.99;100.00;52419.56;5060897;28;19945;-62
2022/11/08 05:06:11;;;;;;;;;;;;;;;-144.99;100.00;52452.16;5073418;28;19945;-73
2022/11/08 05:08:38;;;;;;;;;;;;;;;-144.99;100.00;52439.94;5065932;28;19983;-67
2022/11/08 05:11:05;;;;;;;;;;;;;;;-144.99;100.00;52472.56;5064367;28;19931;-67
2022/11/08 05:13:32;;;;;;;;;;;;;;;-144.99;100.00;52431.78;5063232;28;19924;-67
2022/11/08 05:16:01;;;;;;;;;;;;;;;-144.99;100.00;52435.88;5066265;28;20406;-69
2022/11/08 05:18:28;;;;;;;;;;;;;;;-144.99;100.00;52431.78;5070143;28;20017;-71
2022/11/08 05:23:39;;;;;;;;;;;;;;;-144.99;100.00;52411.41;5064894;28;20027;-70
2022/11/08 05:26:05;;;;;;;;;;;;;;;-144.99;100.00;52415.47;5070220;28;19985;-69
2022/11/08 05:28:32;;;;;;;;;;;;;;;-144.99;100.00;52488.84;5068649;28;19937;-68
2022/11/08 05:30:58;;;;;;;;;;;;;;;-144.99;100.00;52435.88;5070836;28;20053;-74
2022/11/08 05:33:26;;;;;;;;;;;;;;;-144.99;100.00;52441.97;5066874;28;20014;-73
2022/11/08 05:35:52;;;;;;;;;;;;;;;-144.99;100.00;52441.97;5069277;28;19951;-72
2022/11/08 05:38:19;;;;;;;;;;;;;;;-144.99;100.00;52417.53;5066268;28;19974;-75
2022/11/08 05:40:45;;;;;;;;;;;;;;;-144.99;100.00;52488.84;5055955;28;19958;-74
2022/11/08 05:43:12;;;;;;;;;;;;;;;-144.99;100.00;52423.63;5061935;28;19935;-74
2022/11/08 05:45:38;;;;;;;;;;;;;;;-144.99;100.00;52435.88;5062652;28;20030;-72
2022/11/08 05:48:05;;;;;;;;;;;;;;;-144.99;100.00;52409.38;5062825;28;20432;-71
2022/11/08 05:50:33;;;;;;;;;;;;;;;-144.99;100.00;52415.47;5056673;28;20013;-75
2022/11/08 05:53:00;;;;;;;;;;;;;;;-144.99;100.00;52407.31;5055660;28;20242;-73
2022/11/08 05:55:26;;;;;;;;;;;;;;;-144.99;100.00;52403.25;5056895;28;20061;-72
2022/11/08 05:57:53;;;;;;;;;;;;;;;-144.99;100.00;52448.09;5063344;28;19962;-73
2022/11/08 06:00:20;;;;;;;;;;;;;;;-144.99;100.00;52444.03;5066641;28;20474;-65
2022/11/08 06:02:46;;;;;;;;;;;;;;;-144.99;100.00;52444.03;5066320;28;20033;-63
2022/11/08 06:05:13;;;;;;;;;;;;;;;-144.99;100.00;52460.31;5065137;28;20440;-63
2022/11/08 06:07:41;;;;;;;;;;;;;;;-144.99;100.00;52466.44;5062858;28;19977;-63
2022/11/08 06:10:08;;;;;;;;;;;;;;;-144.99;100.00;52415.47;5067312;28;20414;-63
2022/11/08 06:12:34;;;;;;;;;;;;;;;-144.99;100.00;52435.88;5057422;28;19934;-63
2022/11/08 06:15:01;;;;;;;;;;;;;;;-144.99;100.00;52427.72;5062941;28;20451;-79
2022/11/08 06:17:27;;;;;;;;;;;;;;;-144.99;100.00;52431.78;5057653;28;20045;-79
2022/11/08 06:19:54;;;;;;;;;;;;;;;-144.99;100.00;52444.03;5053689;28;19949;-79
2022/11/08 06:22:20;;;;;;;;;;;;;;;-144.99;100.00;52476.63;5061535;28;19973;-79
2022/11/08 06:24:48;;;;;;;;;;;;;;;-144.99;100.00;52444.03;4366797;28;10000744;-81
2022/11/08 06:27:15;;;;;;;;;;;;;;;-144.99;100.00;52454.22;5066279;28;20322;-81
2022/11/08 06:29:42;;;;;;;;;;;;;;;-144.99;100.00;52452.16;5062459;28;19938;-80
2022/11/08 06:32:08;;;;;;;;;;;;;;;-144.99;100.00;52452.16;5081956;28;19974;-82
2022/11/08 06:34:35;;;;;;;;;;;;;;;-144.99;100.00;52468.47;5059983;28;19966;-81
2022/11/08 06:37:02;;;;;;;;;;;;;;;-144.99;100.00;52419.56;5050723;28;19968;-79
2022/11/08 06:39:28;;;;;;;;;;;;;;;-144.99;100.00;52429.75;5067436;28;20397;-78
2022/11/08 06:41:56;;;;;;;;;;;;;;;-144.99;100.00;52492.94;5066724;28;19963;-78
2022/11/08 06:44:22;;;;;;;;;;;;;;;-144.99;100.00;52452.16;5066221;28;20069;-78
2022/11/08 06:46:49;;;;;;;;;;;;;;;-144.99;100.00;52446.06;5061150;28;19998;-79
2022/11/08 06:49:15;;;;;;;;;;;;;;;-144.99;100.00;52382.88;5068152;28;20046;-79
2022/11/08 06:51:42;;;;;;;;;;;;;;;-144.99;100.00;52437.91;5065084;28;20266;-80
2022/11/08 06:54:08;;;;;;;;;;;;;;;-144.99;100.00;52427.72;5061666;28;19958;-80
2022/11/08 06:56:35;;;;;;;;;;;;;;;-144.99;100.00;52484.78;5058507;28;19963;-78
2022/11/08 06:59:03;;;;;;;;;;;;;;;-144.99;100.00;52444.03;5061869;28;19947;-78
2022/11/08 07:01:29;;;;;;;;;;;;;;;-144.99;100.00;52460.31;5065109;28;20250;-77
2022/11/08 07:03:55;;;;;;;;;;;;;;;-144.99;100.00;52492.94;5064786;28;20458;-77
2022/11/08 07:06:22;;;;;;;;;;;;;;;-144.99;100.00;52448.09;5049768;28;20379;-80
2022/11/08 07:08:48;;;;;;;;;;;;;;;-144.99;100.00;52458.28;5063889;28;19958;-77
2022/11/08 07:11:15;;;;;;;;;;;;;;;-144.99;100.00;52450.13;5067477;28;19925;-82
2022/11/08 07:13:41;;;;;;;;;;;;;;;-144.99;100.00;52433.81;5073102;28;20382;-79
2022/11/08 07:16:10;;;;;;;;;;;;;;;-144.99;100.00;52423.63;5070091;28;20401;-80
2022/11/08 07:18:36;;;;;;;;;;;;;;;-144.99;100.00;52407.31;5066619;28;19975;-80
2022/11/08 07:21:03;;;;;;;;;;;;;;;-144.99;100.00;52448.09;5068421;28;20201;-80
2022/11/08 07:23:29;;;;;;;;;;;;;;;-144.99;100.00;52401.22;5065671;28;20344;-79
2022/11/08 07:25:56;;;;;;;;;;;;;;;-144.99;100.00;52425.66;5061308;28;20026;-80
2022/11/08 07:28:22;;;;;;;;;;;;;;;-144.99;100.00;52462.34;5065356;28;20400;-80
2022/11/08 07:30:49;;;;;;;;;;;;;;;-144.99;100.00;52435.88;5064370;28;20048;-81
2022/11/08 07:33:17;;;;;;;;;;;;;;;-144.99;100.00;52427.72;5068164;28;20320;-81
2022/11/08 07:35:45;;;;;;;;;;;;;;;-144.99;100.00;52407.31;5066913;28;20043;-80
2022/11/08 07:38:11;;;;;;;;;;;;;;;-144.99;100.00;52407.31;5052399;28;19950;-79
2022/11/08 07:40:37;;;;;;;;;;;;;;;-144.99;100.00;52415.47;5065146;28;19924;-79
2022/11/08 07:43:04;;;;;;;;;;;;;;;-144.99;99.11;52423.63;5065584;28;20376;-79
2022/11/08 07:45:30;;;;;;;;;;;;;;;-144.99;98.25;52419.56;5065338;28;20391;-78
2022/11/08 07:47:57;;;;;;;;;;;;;;;-144.99;98.02;52407.31;5066277;28;19958;-81
2022/11/08 07:50:25;;;;;;;;;;;;;;;-144.99;97.62;52435.88;5069585;28;19967;-80
2022/11/08 07:52:51;;;;;;;;;;;;;;;-144.99;96.78;52431.78;5060744;28;20053;-81
2022/11/08 07:55:18;;;;;;;;;;;;;;;-144.99;96.94;52399.19;5083514;28;19973;-84
2022/11/08 07:57:45;;;;;;;;;;;;;;;-144.99;96.71;52395.09;5067933;28;19951;-78
2022/11/08 08:00:12;;;;;;;;;;;;;;;-144.99;96.27;52444.03;5063715;28;19997;-79
2022/11/08 08:02:38;;;;;;;;;;;;;;;-144.99;95.13;52419.56;5056300;28;20054;-79
2022/11/08 08:05:05;;;;;;;;;;;;;;;-144.99;92.59;52415.47;5053085;28;20388;-79
2022/11/08 08:07:34;;;;;;;;;;;;;;;-144.99;91.18;52439.94;5050826;28;20341;-81
2022/11/08 08:10:01;;;;;;;;;;;;;;;-144.99;90.69;52427.72;5063941;28;19943;-79
2022/11/08 08:12:27;;;;;;;;;;;;;;;-144.99;90.74;52403.25;5060035;28;20095;-80
2022/11/08 08:14:54;;;;;;;;;;;;;;;-144.99;90.44;52382.88;5069680;28;20062;-80
2022/11/08 08:17:20;;;;;;;;;;;;;;;-144.99;88.72;52391.03;5060040;28;20398;-79
2022/11/08 08:19:47;;;;;;;;;;;;;;;-144.99;87.40;52386.94;5070386;28;20093;-79
2022/11/08 08:22:13;;;;;;;;;;;;;;;-144.99;86.84;52391.03;5068525;28;20481;-79
2022/11/08 08:24:41;;;;;;;;;;;;;;;-144.99;85.61;52407.31;5059712;28;20391;-78
2022/11/08 08:27:07;;;;;;;;;;;;;;;-144.99;85.02;52409.38;5067698;28;19993;-78
2022/11/08 08:29:34;;;;;;;;;;;;;;;-144.99;85.59;52419.56;5070323;28;19970;-79
2022/11/08 08:32:00;;;;;;;;;;;;;;;-144.99;85.79;52407.31;5054975;28;20092;-79
2022/11/08 08:34:27;;;;;;;;;;;;;;;-144.99;85.56;52370.63;5050607;28;19964;-80
2022/11/08 08:36:53;;;;;;;;;;;;;;;-144.99;85.28;52374.72;5078944;28;20432;-80
2022/11/08 08:39:20;;;;;;;;;;;;;;;-144.99;83.93;52411.41;5074125;28;19968;-79
2022/11/08 08:41:48;;;;;;;;;;;;;;;-144.99;82.91;52415.47;5067890;28;20342;-80
2022/11/08 08:44:14;;;;;;;;;;;;;;;-144.99;80.63;52354.34;5068288;28;19955;-78
2022/11/08 08:46:41;;;;;;;;;;;;;;;-144.99;79.03;52397.13;5059613;28;20379;-80
2022/11/08 08:49:07;;;;;;;;;;;;;;;-144.99;78.70;52366.56;5063906;28;19941;-78
2022/11/08 08:51:34;;;;;;;;;;;;;;;-144.99;78.03;52399.19;5064473;28;19994;-79
2022/11/08 08:54:00;;;;;;;;;;;;;;;-144.99;76.30;52362.50;5062728;28;20011;-80
2022/11/08 08:56:27;;;;;;;;;;;;;;;-144.99;74.89;52378.78;5062511;28;19938;-81
2022/11/08 08:58:55;;;;;;;;;;;;;;;-144.99;75.51;52419.56;5068341;28;20035;-80
2022/11/08 09:01:21;;;;;;;;;;;;;;;-144.99;76.36;52407.31;5071343;28;19960;-81
2022/11/08 09:03:48;;;;;;;;;;;;;;;-144.99;75.00;52407.31;5083738;28;19926;-80
2022/11/08 09:06:14;;;;;;;;;;;;;;;-144.99;74.51;52391.03;5086356;28;19954;-79
2022/11/08 09:08:40;;;;;;;;;;;;;;;-144.99;73.43;52382.88;5087973;28;19912;-78
2022/11/08 09:11:07;;;;;;;;;;;;;;;-144.99;72.51;52366.56;5067043;28;20059;-80
2022/11/08 09:13:33;;;;;;;;;;;;;;;-144.99;71.28;52366.56;5069202;28;20081;-79
2022/11/08 09:16:02;;;;;;;;;;;;;;;-144.99;70.69;52362.50;5068097;28;19992;-78
2022/11/08 09:18:29;;;;;;;;;;;;;;;-144.99;71.62;52362.50;5073101;28;20248;-78
2022/11/08 09:20:55;;;;;;;;;;;;;;;-144.99;71.25;52354.34;5085417;28;19945;-79
2022/11/08 09:23:22;;;;;;;;;;;;;;;-144.99;71.34;52342.09;5072427;28;20466;-79
2022/11/08 09:25:48;;;;;;;;;;;;;;;-144.99;72.03;52403.25;5054462;28;20387;-78
2022/11/08 09:28:15;;;;;;;;;;;;;;;-144.99;71.24;52370.63;5063839;28;20368;-76
2022/11/08 09:30:41;;;;;;;;;;;;;;;-144.99;70.43;52366.56;5068510;28;19981;-80
2022/11/08 09:33:09;;;;;;;;;;;;;;;-144.99;70.75;52362.50;5064392;28;20023;-77
2022/11/08 09:35:36;;;;;;;;;;;;;;;-144.99;70.30;52399.19;5066466;28;20010;-76
2022/11/08 09:38:02;;;;;;;;;;;;;;;-144.99;70.02;52362.50;5065844;28;20392;-77
2022/11/08 09:40:31;;;;;;;;;;;;;;;-144.99;71.56;52378.78;5065589;28;19965;-76
2022/11/08 09:43:03;;;;;;;;;;;;;;;-144.99;71.16;52374.72;5064181;28;19946;-76
2022/11/08 09:45:32;;;;;;;;;;;;;;;-144.99;71.13;52346.19;5053059;28;20066;-76
2022/11/08 09:48:00;;;;;;;;;;;;;;;-144.99;70.46;52386.94;5066042;28;19943;-77
2022/11/08 09:50:31;;;;;;;;;;;;;;;-144.99;71.17;52423.63;5060013;28;19965;-76
2022/11/08 09:53:01;;;;;;;;;;;;;;;-144.99;71.46;52370.63;5053955;28;20023;-76
2022/11/08 09:55:30;;;;;;;;;;;;;;;-144.99;72.27;52391.03;5060375;28;20014;-76
2022/11/08 09:58:01;;;;;;;;;;;;;;;-144.99;72.49;52403.25;5059838;28;19994;-77
2022/11/08 10:00:28;;;;;;;;;;;;;;;-144.99;72.27;52401.22;5056113;28;19983;-76
2022/11/08 10:02:54;;;;;;;;;;;;;;;-144.99;72.90;52356.38;5069971;28;19978;-77
2022/11/08 10:05:21;;;;;;;;;;;;;;;-144.99;72.76;52376.75;5058116;28;20226;-76
2022/11/08 10:07:53;;;;;;;;;;;;;;;-144.99;72.32;52340.06;5064410;28;20387;-77
2022/11/08 10:10:46;;;;;;;;;;;;;;;-144.99;71.77;52382.88;5059065;28;19967;-77
2022/11/08 10:13:18;;;;;;;;;;;;;;;-144.99;69.48;52354.34;5017556;28;20043;-77
2022/11/08 10:15:50;;;;;;;;;;;;;;;-144.99;68.89;52382.88;5064036;28;20096;-77
2022/11/08 10:18:24;;;;;;;;;;;;;;;-144.99;68.94;52350.25;5057301;28;20022;-76
2022/11/08 10:20:57;;;;;;;;;;;;;;;-144.99;68.25;52342.09;5052909;28;20052;-76
2022/11/08 10:23:29;;;;;;;;;;;;;;;-144.99;69.15;52382.88;5064743;28;19939;-76
2022/11/08 10:25:59;;;;;;;;;;;;;;;-144.99;67.12;52293.19;5054618;28;19946;-77
2022/11/08 10:28:28;;;;;;;;;;;;;;;-144.99;62.97;52309.50;5060785;28;19943;-77
2022/11/08 10:30:55;;;;;;;;;;;;;;;-144.99;62.04;52289.13;5065931;28;20052;-77
2022/11/08 10:33:23;;;;;;;;;;;;;;;-144.99;61.75;52289.13;5052783;28;19944;-77
2022/11/08 10:35:54;;;;;;;;;;;;;;;-144.99;61.59;52301.34;5063875;28;19967;-77
2022/11/08 10:38:23;;;;;;;;;;;;;;;-144.99;60.24;52309.50;5052674;28;19936;-77
2022/11/08 10:40:56;;;;;;;;;;;;;;;-144.99;58.95;52270.78;5065236;28;20047;-77
2022/11/08 10:43:26;;;;;;;;;;;;;;;-144.99;58.56;52264.66;5056191;28;20005;-76
2022/11/08 10:45:52;;;;;;;;;;;;;;;-144.99;58.69;52285.03;5074272;28;20074;-76
2022/11/08 10:48:19;;;;;;;;;;;;;;;-144.99;58.13;52289.13;5067377;28;19946;-77
2022/11/08 10:50:46;;;;;;;;;;;;;;;-144.99;58.27;52297.25;5064897;28;20028;-75
2022/11/08 10:53:17;;;;;;;;;;;;;;;-144.99;58.93;52350.25;5078097;22;20438;-72
2022/11/08 10:55:47;;;;;;;;;;;;;;;-144.99;59.77;52333.94;5068050;28;20320;-71
2022/11/08 10:58:29;;;;;;;;;;;;;;;-144.99;59.87;52329.88;5058150;28;20660;-72
2022/11/08 11:00:59;;;;;;;;;;;;;;;-144.99;59.74;52342.09;5050847;28;19959;-71
2022/11/08 11:03:29;;;;;;;;;;;;;;;-144.99;58.30;52272.81;5046301;28;20027;-71
2022/11/08 11:05:57;;;;;;;;;;;;;;;-144.99;57.50;52297.25;5035346;28;19943;-71
2022/11/08 11:08:24;;;;;;;;;;;;;;;-144.99;57.21;52264.66;5046827;28;20520;-74
2022/11/08 11:10:51;;;;;;;;;;;;;;;-144.99;56.80;52256.50;5047309;28;20615;-72
2022/11/08 11:13:20;;;;;;;;;;;;;;;-144.99;56.59;52272.81;5048591;28;19975;-72
2022/11/08 11:15:49;;;;;;;;;;;;;;;-144.99;55.54;52276.88;5057165;28;20337;-72
2022/11/08 11:18:21;;;;;;;;;;;;;;;-144.99;55.03;52266.69;5054869;28;19955;-73
2022/11/08 11:20:57;;;;;;;;;;;;;;;-144.99;54.21;52268.72;5058323;28;20605;-73
2022/11/08 11:23:31;;;;;;;;;;;;;;;-144.99;53.49;52207.59;5056947;28;19936;-72
2022/11/08 11:25:58;;;;;;;;;;;;;;;-144.99;52.86;52244.28;5050210;28;20426;-72
2022/11/08 11:28:25;;;;;;;;;;;;;;;-144.99;51.39;52211.66;5048382;28;19941;-73
2022/11/08 11:30:59;;;;;;;;;;;;;;;-144.99;51.83;52248.34;5061894;28;20020;-71
2022/11/08 11:33:26;;;;;;;;;;;;;;;-144.99;52.19;52313.56;5047565;28;20494;-70
2022/11/08 11:35:55;;;;;;;;;;;;;;;-144.99;52.12;52280.97;5048714;28;20515;-72
2022/11/08 11:38:28;;;;;;;;;;;;;;;-144.99;52.71;52309.50;5057245;28;20025;-72
2022/11/08 11:40:56;;;;;;;;;;;;;;;-144.99;53.91;52336.00;5053251;28;19959;-71
2022/11/08 11:43:27;;;;;;;;;;;;;;;-144.99;54.18;52315.59;5058094;28;19962;-71
2022/11/08 11:45:58;;;;;;;;;;;;;;;-144.99;53.54;52329.88;5053700;28;20003;-70
2022/11/08 11:48:27;;;;;;;;;;;;;;;-144.99;54.72;52346.19;5064187;28;19948;-71
2022/11/08 11:50:53;;;;;;;;;;;;;;;-144.99;56.00;52370.63;5051238;28;20023;-70
2022/11/08 11:53:21;;;;;;;;;;;;;;;-144.99;56.65;52358.41;5047202;28;20044;-72
2022/11/08 11:56:04;;;;;;;;;;;;;;;-144.99;57.21;52384.91;5050937;28;20394;-69
2022/11/08 11:58:42;;;;;;;;;;;;;;;-144.99;58.02;52362.50;5054105;28;19928;-68
2022/11/08 12:01:17;;;;;;;;;;;;;;;-144.99;58.12;52362.50;5052503;28;19971;-71
2022/11/08 12:03:50;;;;;;;;;;;;;;;-144.99;58.67;52384.91;5054590;28;19961;-69
2022/11/08 12:06:22;;;;;;;;;;;;;;;-144.99;59.31;52374.72;5049804;28;20137;-69
2022/11/08 12:08:54;;;;;;;;;;;;;;;-144.99;59.47;52368.59;5054958;28;19978;-70
2022/11/08 12:11:30;;;;;;;;;;;;;;;-144.99;59.75;52370.63;5050376;28;20382;-69
2022/11/08 12:14:07;;;;;;;;;;;;;;;-144.99;59.58;52382.88;5061085;28;19964;-70
2022/11/08 12:16:38;;;;;;;;;;;;;;;-144.99;60.28;52374.72;5060005;28;20378;-72
2022/11/08 12:19:15;;;;;;;;;;;;;;;-144.99;61.00;52391.03;5060557;28;20029;-70
2022/11/08 12:21:47;;;;;;;;;;;;;;;-144.99;60.64;52370.63;5049857;28;19975;-69
2022/11/08 12:24:18;;;;;;;;;;;;;;;-144.99;61.05;52413.44;5062750;28;19947;-68
2022/11/08 12:26:51;;;;;;;;;;;;;;;-144.99;61.36;52407.31;5050305;28;19939;-71
2022/11/08 12:29:22;;;;;;;;;;;;;;;-144.99;61.05;52382.88;5061071;28;19939;-69
2022/11/08 12:31:55;;;;;;;;;;;;;;;-144.99;60.94;52427.72;5048911;28;20469;-69
2022/11/08 12:34:23;;;;;;;;;;;;;;;-144.99;61.54;52403.25;5057722;28;20393;-70
2022/11/08 12:36:56;;;;;;;;;;;;;;;-144.99;61.63;52429.75;5059495;28;20389;-70
2022/11/08 12:39:31;;;;;;;;;;;;;;;-144.99;61.61;52388.97;5050034;28;20018;-70
2022/11/08 12:42:07;;;;;;;;;;;;;;;-144.99;61.05;52356.38;5051338;28;19971;-70
2022/11/08 12:44:43;;;;;;;;;;;;;;;-144.99;60.08;52391.03;5048507;28;20372;-70